Weather History for Mount Carmel, IL

Change the Weather History Date:

Wednesday, December 26, 2012

  Actual Average (KLWV) Record (KLWV)
Temperature  
Mean Temperature 34 °F 32 °F  
Max Temperature 35 °F 40 °F 60 °F (2008)
Min Temperature 32 °F 24 °F 6 °F (2000)
Degree Days  
Heating Degree Days 32 33  
Month to date heating degree days 774  
Since 1 July heating degree days 1632  
Cooling Degree Days 0 0  
Month to date cooling degree days 0  
Year to date cooling degree days 1387  
Moisture  
Dew Point 31 °F    
Average Humidity 90    
Maximum Humidity 100    
Minimum Humidity 75    
Precipitation  
Precipitation 0.14 in 0.12 in 0.86 in (1987)
Month to date precipitation 2.85  
Year to date precipitation 43.34  
Sea Level Pressure  
Sea Level Pressure 29.85 in    
Wind  
Wind Speed 21 mph (North)    
Max Wind Speed 28 mph    
Max Gust Speed 34 mph    
Visibility 6 miles    
Events Rain , Snow    
T = Trace of Precipitation, MM = Missing Value Source: NWS Daily Summary

Daily Weather History Graph

Daily Weather History Graph

Search for Another Location

Airport:

Trip Planner

Search our weather history database for the weather conditions in past years. The results will help you decide how hot, cold, wet, or windy it might be!

Date:

Astronomy

Dec. 26, 2012 Rise Set
Actual Time 7:07 AM CST 4:36 PM CST
Civil Twilight 6:37 AM CST 5:06 PM CST
Nautical Twilight 6:04 AM CST 5:39 PM CST
Astronomical Twilight 5:31 AM CST 6:11 PM CST
Moon 3:29 PM CST (12/26) 5:30 AM CST (12/26)
Length of Visible Light 10h 28m
Length of Day
9h 28m
Waxing Gibbous, 97% of the Moon is Illuminated
Dec 26
Waxing Gibbous
Dec 28
Full
Jan 4
Last Quarter
Jan 11
New
Jan 18
First Quarter

Hourly Weather History & Observations

Time (CST) Temp. Windchill Dew Point Humidity Pressure Visibility Wind Dir Wind Speed Gust Speed Precip Events Conditions
12:15 AM 35.6 °F 24.0 °F 28.4 °F 75% 29.84 in 10.0 mi NE 23.0 mph 31.1 mph N/A   Overcast
12:35 AM 35.6 °F 24.8 °F 28.4 °F 75% 29.84 in 10.0 mi NE 19.6 mph 32.2 mph N/A   Overcast
12:55 AM 35.6 °F 23.7 °F 30.2 °F 81% 29.82 in 10.0 mi NE 24.2 mph 34.5 mph N/A   Overcast
1:15 AM 35.6 °F 24.0 °F 30.2 °F 81% 29.80 in 10.0 mi NE 23.0 mph 34.5 mph N/A   Overcast
1:35 AM 35.6 °F 23.4 °F 30.2 °F 81% 29.80 in 10.0 mi NE 25.3 mph 32.2 mph N/A   Light Drizzle
1:55 AM 35.6 °F 23.0 °F 30.2 °F 81% 29.79 in 7.0 mi NNE 27.6 mph 33.4 mph N/A Rain Light Rain
2:15 AM 33.8 °F 21.6 °F 32.0 °F 93% 29.76 in 1.5 mi NNE 23.0 mph 33.4 mph N/A Snow Light Snow
2:35 AM 33.8 °F 21.6 °F 32.0 °F 93% 29.75 in 1.8 mi NNE 23.0 mph 28.8 mph N/A Snow Light Snow
2:55 AM 33.8 °F 22.2 °F 32.0 °F 93% 29.75 in 1.2 mi NNE 20.7 mph 31.1 mph N/A Snow Light Snow
3:15 AM 33.8 °F 21.6 °F 32.0 °F 93% 29.73 in 0.8 mi NNE 23.0 mph 26.5 mph 0.01 in Snow Snow
3:35 AM 33.8 °F 22.8 °F 32.0 °F 93% 29.71 in 0.8 mi NNE 18.4 mph 27.6 mph 0.01 in Snow Snow
3:55 AM 33.8 °F 22.2 °F 32.0 °F 93% 29.70 in 0.5 mi NNE 20.7 mph 27.6 mph 0.02 in Snow Heavy Snow
4:15 AM 33.8 °F 21.6 °F 32.0 °F 93% 29.70 in 0.2 mi NNE 23.0 mph 28.8 mph 0.01 in Snow Heavy Snow
4:35 AM 33.8 °F 21.3 °F 32.0 °F 93% 29.68 in 0.2 mi North 24.2 mph 33.4 mph 0.02 in Snow Heavy Snow
4:55 AM 33.8 °F 21.0 °F 32.0 °F 93% 29.66 in 0.2 mi North 25.3 mph 32.2 mph 0.03 in Snow Heavy Snow
5:15 AM 33.8 °F 22.2 °F 32.0 °F 93% 29.66 in 0.2 mi North 20.7 mph 31.1 mph 0.01 in Snow Heavy Snow
5:35 AM 33.8 °F 21.9 °F 32.0 °F 93% 29.66 in - North 21.9 mph 34.5 mph 0.03 in   Overcast
5:55 AM 33.8 °F 21.3 °F 32.0 °F 93% 29.66 in - North 24.2 mph 32.2 mph 0.04 in   Overcast
6:15 AM 32.0 °F 18.6 °F 32.0 °F 100% 29.66 in - North 25.3 mph 34.5 mph 0.01 in   Overcast
6:35 AM 32.0 °F 18.1 °F 32.0 °F 100% 29.65 in - North 27.6 mph 34.5 mph 0.01 in   Overcast
6:55 AM 33.8 °F 21.0 °F 32.0 °F 93% 29.66 in - North 25.3 mph 33.4 mph 0.02 in   Overcast
7:15 AM 32.0 °F 19.8 °F 32.0 °F 100% 29.67 in - North 20.7 mph 32.2 mph 0.01 in   Overcast
7:35 AM 32.0 °F 19.5 °F 32.0 °F 100% 29.67 in - North 21.9 mph 32.2 mph 0.01 in   Overcast
7:55 AM 32.0 °F 18.9 °F 32.0 °F 100% 29.68 in - North 24.2 mph 32.2 mph 0.01 in   Overcast
8:15 AM 32.0 °F 18.9 °F 32.0 °F 100% 29.69 in - North 24.2 mph 33.4 mph 0.01 in   Overcast
8:35 AM 32.0 °F 19.8 °F 32.0 °F 100% 29.71 in - North 20.7 mph 29.9 mph 0.01 in   Overcast
8:55 AM 32.0 °F 20.1 °F 32.0 °F 100% 29.72 in - North 19.6 mph 28.8 mph 0.01 in   Overcast
9:15 AM 32.0 °F 19.5 °F 32.0 °F 100% 29.73 in - North 21.9 mph 29.9 mph 0.01 in   Overcast
9:35 AM 32.0 °F 19.2 °F 32.0 °F 100% 29.73 in - North 23.0 mph 29.9 mph 0.01 in   Unknown
9:55 AM 32.0 °F 18.9 °F 32.0 °F 100% 29.74 in - North 24.2 mph 31.1 mph 0.01 in   Overcast
10:15 AM 33.8 °F 21.6 °F 32.0 °F 93% 29.74 in 2.0 mi North 23.0 mph 32.2 mph N/A Snow Light Snow
10:35 AM 32.0 °F 19.8 °F 32.0 °F 100% 29.75 in 1.5 mi North 20.7 mph 31.1 mph N/A Snow Light Snow
10:55 AM 33.8 °F 21.3 °F 32.0 °F 93% 29.76 in 2.0 mi North 24.2 mph 31.1 mph N/A Snow Light Snow
11:15 AM 33.8 °F 22.2 °F 30.2 °F 87% 29.76 in 4.0 mi North 20.7 mph 31.1 mph N/A   Overcast
11:35 AM 33.8 °F 21.9 °F 30.2 °F 87% 29.77 in 4.0 mi North 21.9 mph 28.8 mph N/A Snow Light Snow
11:55 AM 33.8 °F 22.5 °F 30.2 °F 87% 29.77 in 4.0 mi NNW 19.6 mph 27.6 mph N/A Snow Light Snow
12:35 PM 32.0 °F 19.8 °F 30.2 °F 93% 29.79 in 3.0 mi NNW 20.7 mph 26.5 mph N/A Snow Light Snow
12:55 PM 32.0 °F 20.1 °F 30.2 °F 93% 29.80 in 2.0 mi NNW 19.6 mph - N/A Snow Light Snow
1:15 PM 32.0 °F 18.9 °F 30.2 °F 93% 29.81 in 3.0 mi NNW 24.2 mph 32.2 mph N/A Snow Light Snow
1:35 PM 32.0 °F 19.2 °F 30.2 °F 93% 29.82 in 3.0 mi NNW 23.0 mph 32.2 mph N/A   Overcast
1:55 PM 32.0 °F 19.8 °F 30.2 °F 93% 29.83 in 5.0 mi NNW 20.7 mph 33.4 mph N/A   Overcast
2:15 PM 32.0 °F 19.5 °F 28.4 °F 87% 29.84 in 5.0 mi NNW 21.9 mph 28.8 mph N/A   Haze
2:35 PM 32.0 °F 20.1 °F 30.2 °F 93% 29.86 in 7.0 mi NNW 19.6 mph 27.6 mph N/A Snow Light Snow
2:55 PM 32.0 °F 21.2 °F 30.2 °F 93% 29.87 in 5.0 mi NNW 16.1 mph 31.1 mph N/A Snow Light Snow
3:15 PM 33.8 °F 22.8 °F 30.2 °F 87% 29.89 in 4.0 mi NNW 18.4 mph 26.5 mph N/A   Haze
3:35 PM 33.8 °F 23.2 °F 30.2 °F 87% 29.91 in 3.0 mi NNW 17.3 mph 28.8 mph N/A Snow Light Snow
3:55 PM 33.8 °F 22.5 °F 30.2 °F 87% 29.91 in 7.0 mi NNW 19.6 mph - N/A   Overcast
4:15 PM 33.8 °F 23.2 °F 30.2 °F 87% 29.92 in 4.0 mi NNW 17.3 mph 23.0 mph N/A Snow Light Snow
4:35 PM 33.8 °F 22.8 °F 30.2 °F 87% 29.94 in 4.0 mi NNW 18.4 mph 25.3 mph N/A Snow Light Snow
4:55 PM 33.8 °F 23.9 °F 30.2 °F 87% 29.95 in 10.0 mi NNW 15.0 mph 23.0 mph N/A   Overcast
5:15 PM 33.8 °F 23.2 °F 30.2 °F 87% 29.96 in 10.0 mi NNW 17.3 mph 24.2 mph N/A   Overcast
5:35 PM 33.8 °F 23.5 °F 30.2 °F 87% 29.98 in 10.0 mi NNW 16.1 mph - N/A   Overcast
5:55 PM 33.8 °F 23.5 °F 30.2 °F 87% 29.99 in 10.0 mi NNW 16.1 mph - N/A   Overcast
6:15 PM 33.8 °F 22.8 °F 30.2 °F 87% 29.99 in 10.0 mi NNW 18.4 mph - N/A   Overcast
6:35 PM 33.8 °F 23.9 °F 30.2 °F 87% 30.01 in 10.0 mi NNW 15.0 mph 19.6 mph N/A   Overcast
6:55 PM 33.8 °F 25.3 °F 30.2 °F 87% 30.01 in 10.0 mi NNW 11.5 mph 20.7 mph N/A   Overcast
7:15 PM 33.8 °F 24.3 °F 30.2 °F 87% 30.01 in 10.0 mi NNW 13.8 mph 17.3 mph N/A   Overcast
7:35 PM 33.8 °F 25.3 °F 30.2 °F 87% 30.02 in 10.0 mi NNW 11.5 mph 18.4 mph N/A   Overcast
7:55 PM 33.8 °F 24.8 °F 30.2 °F 87% 30.03 in 10.0 mi NW 12.7 mph - N/A   Overcast
8:15 PM 33.8 °F 24.8 °F 30.2 °F 87% 30.03 in 10.0 mi NNW 12.7 mph - N/A   Overcast
8:35 PM 33.8 °F 25.3 °F 30.2 °F 87% 30.04 in 10.0 mi NNW 11.5 mph - N/A   Overcast
8:55 PM 33.8 °F 25.3 °F 30.2 °F 87% 30.05 in 10.0 mi NNW 11.5 mph - N/A   Overcast
9:15 PM 33.8 °F 25.3 °F 30.2 °F 87% 30.05 in 10.0 mi NNW 11.5 mph - N/A   Overcast
9:35 PM 33.8 °F 25.8 °F 30.2 °F 87% 30.06 in 10.0 mi NW 10.4 mph - N/A   Overcast
9:55 PM 33.8 °F 25.3 °F 30.2 °F 87% 30.07 in 10.0 mi NW 11.5 mph - N/A   Overcast
10:15 PM 33.8 °F 25.3 °F 30.2 °F 87% 30.07 in 10.0 mi NW 11.5 mph - N/A   Overcast
10:35 PM 33.8 °F 25.8 °F 30.2 °F 87% 30.07 in 10.0 mi NNW 10.4 mph - N/A   Overcast
10:55 PM 33.8 °F 26.4 °F 30.2 °F 87% 30.08 in 10.0 mi NW 9.2 mph - N/A   Overcast
11:15 PM 33.8 °F 25.8 °F 30.2 °F 87% 30.08 in 10.0 mi NNW 10.4 mph - N/A   Overcast
11:35 PM 33.8 °F 26.4 °F 28.4 °F 81% 30.08 in 10.0 mi NNW 9.2 mph - N/A   Overcast
11:55 PM 33.8 °F 26.4 °F 30.2 °F 87% 30.09 in 10.0 mi WNW 9.2 mph - N/A   Overcast